sensor_id;sensor_type;location;lat;lon;timestamp;temperature;humidity
30764;DHT22;17497;51.476;7.770;2022-09-17T00:00:59;9.70;99.90
30764;DHT22;17497;51.476;7.770;2022-09-17T00:03:26;9.70;99.90
30764;DHT22;17497;51.476;7.770;2022-09-17T00:06:03;9.60;99.90
30764;DHT22;17497;51.476;7.770;2022-09-17T00:08:31;9.60;99.90
30764;DHT22;17497;51.476;7.770;2022-09-17T00:11:09;9.60;99.90
30764;DHT22;17497;51.476;7.770;2022-09-17T00:13:36;9.60;99.90
30764;DHT22;17497;51.476;7.770;2022-09-17T00:16:03;9.60;99.90
30764;DHT22;17497;51.476;7.770;2022-09-17T00:18:30;9.60;99.90
30764;DHT22;17497;51.476;7.770;2022-09-17T00:20:57;9.60;99.90
30764;DHT22;17497;51.476;7.770;2022-09-17T00:23:24;9.70;99.90
30764;DHT22;17497;51.476;7.770;2022-09-17T00:25:51;9.70;99.90
30764;DHT22;17497;51.476;7.770;2022-09-17T00:28:18;9.70;99.90
30764;DHT22;17497;51.476;7.770;2022-09-17T00:30:45;9.60;99.90
30764;DHT22;17497;51.476;7.770;2022-09-17T00:33:16;9.60;99.90
30764;DHT22;17497;51.476;7.770;2022-09-17T00:35:43;9.60;99.90
30764;DHT22;17497;51.476;7.770;2022-09-17T00:38:10;9.60;99.90
30764;DHT22;17497;51.476;7.770;2022-09-17T00:40:37;9.60;99.90
30764;DHT22;17497;51.476;7.770;2022-09-17T00:43:09;9.60;99.90
30764;DHT22;17497;51.476;7.770;2022-09-17T00:45:37;9.70;99.90
30764;DHT22;17497;51.476;7.770;2022-09-17T00:48:06;9.70;99.90
30764;DHT22;17497;51.476;7.770;2022-09-17T00:50:37;9.70;99.90
30764;DHT22;17497;51.476;7.770;2022-09-17T00:53:07;9.70;99.90
30764;DHT22;17497;51.476;7.770;2022-09-17T00:55:41;9.70;99.90
30764;DHT22;17497;51.476;7.770;2022-09-17T00:58:10;9.70;99.90
30764;DHT22;17497;51.476;7.770;2022-09-17T01:00:38;9.70;99.90
30764;DHT22;17497;51.476;7.770;2022-09-17T01:03:06;9.70;99.90
30764;DHT22;17497;51.476;7.770;2022-09-17T01:05:39;9.70;99.90
30764;DHT22;17497;51.476;7.770;2022-09-17T01:08:27;9.70;99.90
30764;DHT22;17497;51.476;7.770;2022-09-17T01:14:33;9.60;99.90
30764;DHT22;17497;51.476;7.770;2022-09-17T01:20:13;9.60;99.90
30764;DHT22;17497;51.476;7.770;2022-09-17T01:36:44;9.60;99.90
30764;DHT22;17497;51.476;7.770;2022-09-17T01:41:55;9.60;99.90
30764;DHT22;17497;51.476;7.770;2022-09-17T01:44:39;9.60;99.90
30764;DHT22;17497;51.476;7.770;2022-09-17T01:47:19;9.60;99.90
30764;DHT22;17497;51.476;7.770;2022-09-17T01:49:50;9.50;99.90
30764;DHT22;17497;51.476;7.770;2022-09-17T01:52:19;9.40;99.90
30764;DHT22;17497;51.476;7.770;2022-09-17T01:54:49;9.40;99.90
30764;DHT22;17497;51.476;7.770;2022-09-17T01:57:26;9.40;99.90
30764;DHT22;17497;51.476;7.770;2022-09-17T02:00:08;9.40;99.90
30764;DHT22;17497;51.476;7.770;2022-09-17T02:02:53;9.40;99.90
30764;DHT22;17497;51.476;7.770;2022-09-17T02:10:50;9.30;99.90
30764;DHT22;17497;51.476;7.770;2022-09-17T02:13:24;9.30;99.90
30764;DHT22;17497;51.476;7.770;2022-09-17T02:16:00;9.30;99.90
30764;DHT22;17497;51.476;7.770;2022-09-17T02:18:43;9.30;99.90
30764;DHT22;17497;51.476;7.770;2022-09-17T02:26:33;9.30;99.90
30764;DHT22;17497;51.476;7.770;2022-09-17T02:29:08;9.20;99.90
30764;DHT22;17497;51.476;7.770;2022-09-17T02:31:35;9.20;99.90
30764;DHT22;17497;51.476;7.770;2022-09-17T02:34:03;9.20;99.90
30764;DHT22;17497;51.476;7.770;2022-09-17T02:36:31;9.20;99.90
30764;DHT22;17497;51.476;7.770;2022-09-17T02:38:59;9.20;99.90
30764;DHT22;17497;51.476;7.770;2022-09-17T02:41:45;9.30;99.90
30764;DHT22;17497;51.476;7.770;2022-09-17T02:55:16;9.40;99.90
30764;DHT22;17497;51.476;7.770;2022-09-17T02:58:02;9.40;99.90
30764;DHT22;17497;51.476;7.770;2022-09-17T03:00:31;9.30;99.90
30764;DHT22;17497;51.476;7.770;2022-09-17T03:03:04;9.40;99.90
30764;DHT22;17497;51.476;7.770;2022-09-17T03:05:36;9.40;99.90
30764;DHT22;17497;51.476;7.770;2022-09-17T03:08:07;9.40;99.90
30764;DHT22;17497;51.476;7.770;2022-09-17T03:10:35;9.40;99.90
30764;DHT22;17497;51.476;7.770;2022-09-17T03:13:02;9.30;99.90
30764;DHT22;17497;51.476;7.770;2022-09-17T03:15:29;9.30;99.90
30764;DHT22;17497;51.476;7.770;2022-09-17T03:17:56;9.30;99.90
30764;DHT22;17497;51.476;7.770;2022-09-17T03:20:23;9.30;99.90
30764;DHT22;17497;51.476;7.770;2022-09-17T03:22:50;9.30;99.90
30764;DHT22;17497;51.476;7.770;2022-09-17T03:25:17;9.30;99.90
30764;DHT22;17497;51.476;7.770;2022-09-17T03:27:44;9.30;99.90
30764;DHT22;17497;51.476;7.770;2022-09-17T03:30:11;9.30;99.90
30764;DHT22;17497;51.476;7.770;2022-09-17T03:32:37;9.40;99.90
30764;DHT22;17497;51.476;7.770;2022-09-17T03:35:04;9.40;99.90
30764;DHT22;17497;51.476;7.770;2022-09-17T03:37:31;9.40;99.90
30764;DHT22;17497;51.476;7.770;2022-09-17T03:39:58;9.40;99.90
30764;DHT22;17497;51.476;7.770;2022-09-17T03:42:25;9.40;99.90
30764;DHT22;17497;51.476;7.770;2022-09-17T03:44:52;9.40;99.90
30764;DHT22;17497;51.476;7.770;2022-09-17T03:47:19;9.40;99.90
30764;DHT22;17497;51.476;7.770;2022-09-17T03:49:45;9.40;99.90
30764;DHT22;17497;51.476;7.770;2022-09-17T03:52:12;9.40;99.90
30764;DHT22;17497;51.476;7.770;2022-09-17T03:54:39;9.40;99.90
30764;DHT22;17497;51.476;7.770;2022-09-17T03:57:06;9.40;99.90
30764;DHT22;17497;51.476;7.770;2022-09-17T03:59:32;9.30;99.90
30764;DHT22;17497;51.476;7.770;2022-09-17T04:01:59;9.30;99.90
30764;DHT22;17497;51.476;7.770;2022-09-17T04:04:26;9.30;99.90
30764;DHT22;17497;51.476;7.770;2022-09-17T04:06:53;9.20;99.90
30764;DHT22;17497;51.476;7.770;2022-09-17T04:09:20;9.20;99.90
30764;DHT22;17497;51.476;7.770;2022-09-17T04:11:47;9.20;99.90
30764;DHT22;17497;51.476;7.770;2022-09-17T04:14:13;9.20;99.90
30764;DHT22;17497;51.476;7.770;2022-09-17T04:16:40;9.20;99.90
30764;DHT22;17497;51.476;7.770;2022-09-17T04:22:10;9.20;99.90
30764;DHT22;17497;51.476;7.770;2022-09-17T04:24:37;9.20;99.90
30764;DHT22;17497;51.476;7.770;2022-09-17T04:27:04;9.20;99.90
30764;DHT22;17497;51.476;7.770;2022-09-17T04:29:31;9.20;99.90
30764;DHT22;17497;51.476;7.770;2022-09-17T04:31:57;9.20;99.90
30764;DHT22;17497;51.476;7.770;2022-09-17T04:34:24;9.20;99.90
30764;DHT22;17497;51.476;7.770;2022-09-17T04:36:51;9.20;99.90
30764;DHT22;17497;51.476;7.770;2022-09-17T04:39:17;9.20;99.90
30764;DHT22;17497;51.476;7.770;2022-09-17T04:41:44;9.20;99.90
30764;DHT22;17497;51.476;7.770;2022-09-17T04:44:11;9.20;99.90
30764;DHT22;17497;51.476;7.770;2022-09-17T04:46:38;9.20;99.90
30764;DHT22;17497;51.476;7.770;2022-09-17T04:49:04;9.20;99.90
30764;DHT22;17497;51.476;7.770;2022-09-17T04:51:31;9.30;99.90
30764;DHT22;17497;51.476;7.770;2022-09-17T04:53:58;9.20;99.90
30764;DHT22;17497;51.476;7.770;2022-09-17T04:56:24;9.30;99.90
30764;DHT22;17497;51.476;7.770;2022-09-17T04:58:51;9.20;99.90
30764;DHT22;17497;51.476;7.770;2022-09-17T05:01:18;9.20;99.90
30764;DHT22;17497;51.476;7.770;2022-09-17T05:03:45;9.30;99.90
30764;DHT22;17497;51.476;7.770;2022-09-17T05:06:11;9.20;99.90
30764;DHT22;17497;51.476;7.770;2022-09-17T05:08:38;9.20;99.90
30764;DHT22;17497;51.476;7.770;2022-09-17T05:11:05;9.20;99.90
30764;DHT22;17497;51.476;7.770;2022-09-17T05:13:32;9.20;99.90
30764;DHT22;17497;51.476;7.770;2022-09-17T05:15:58;9.30;99.90
30764;DHT22;17497;51.476;7.770;2022-09-17T05:18:25;9.20;99.90
30764;DHT22;17497;51.476;7.770;2022-09-17T05:20:52;9.20;99.90
30764;DHT22;17497;51.476;7.770;2022-09-17T05:23:19;9.20;99.90
30764;DHT22;17497;51.476;7.770;2022-09-17T05:25:45;9.20;99.90
30764;DHT22;17497;51.476;7.770;2022-09-17T05:28:12;9.30;99.90
30764;DHT22;17497;51.476;7.770;2022-09-17T05:30:39;9.30;99.90
30764;DHT22;17497;51.476;7.770;2022-09-17T05:33:05;9.30;99.90
30764;DHT22;17497;51.476;7.770;2022-09-17T05:35:33;9.30;99.90
30764;DHT22;17497;51.476;7.770;2022-09-17T05:38:04;9.30;99.90
30764;DHT22;17497;51.476;7.770;2022-09-17T05:40:31;9.30;99.90
30764;DHT22;17497;51.476;7.770;2022-09-17T05:43:02;9.30;99.90
30764;DHT22;17497;51.476;7.770;2022-09-17T05:45:31;9.40;99.90
30764;DHT22;17497;51.476;7.770;2022-09-17T05:47:59;9.30;99.90
30764;DHT22;17497;51.476;7.770;2022-09-17T05:50:27;9.30;99.90
30764;DHT22;17497;51.476;7.770;2022-09-17T05:52:54;9.30;99.90
30764;DHT22;17497;51.476;7.770;2022-09-17T05:55:22;9.30;99.90
30764;DHT22;17497;51.476;7.770;2022-09-17T05:57:49;9.30;99.90
30764;DHT22;17497;51.476;7.770;2022-09-17T06:00:17;9.30;99.90
30764;DHT22;17497;51.476;7.770;2022-09-17T06:02:44;9.30;99.90
30764;DHT22;17497;51.476;7.770;2022-09-17T06:05:11;9.30;99.90
30764;DHT22;17497;51.476;7.770;2022-09-17T06:07:38;9.30;99.90
30764;DHT22;17497;51.476;7.770;2022-09-17T06:10:05;9.30;99.90
30764;DHT22;17497;51.476;7.770;2022-09-17T06:12:33;9.30;99.90
30764;DHT22;17497;51.476;7.770;2022-09-17T06:15:03;9.30;99.90
30764;DHT22;17497;51.476;7.770;2022-09-17T06:17:34;9.40;99.90
30764;DHT22;17497;51.476;7.770;2022-09-17T06:20:02;9.50;99.90
30764;DHT22;17497;51.476;7.770;2022-09-17T06:22:30;9.50;99.90
30764;DHT22;17497;51.476;7.770;2022-09-17T06:24:57;9.60;99.90
30764;DHT22;17497;51.476;7.770;2022-09-17T06:27:30;9.60;99.90
30764;DHT22;17497;51.476;7.770;2022-09-17T06:29:58;9.70;99.90
30764;DHT22;17497;51.476;7.770;2022-09-17T06:32:25;9.70;99.90
30764;DHT22;17497;51.476;7.770;2022-09-17T06:34:51;9.80;99.90
30764;DHT22;17497;51.476;7.770;2022-09-17T06:37:19;9.80;99.90
30764;DHT22;17497;51.476;7.770;2022-09-17T06:39:46;10.00;99.90
30764;DHT22;17497;51.476;7.770;2022-09-17T06:42:13;10.10;99.90
30764;DHT22;17497;51.476;7.770;2022-09-17T06:44:39;10.20;99.90
30764;DHT22;17497;51.476;7.770;2022-09-17T06:47:06;10.30;99.90
30764;DHT22;17497;51.476;7.770;2022-09-17T06:49:33;10.20;99.90
30764;DHT22;17497;51.476;7.770;2022-09-17T06:52:00;10.30;99.90
30764;DHT22;17497;51.476;7.770;2022-09-17T06:54:27;10.30;99.90
30764;DHT22;17497;51.476;7.770;2022-09-17T06:56:53;10.30;99.90
30764;DHT22;17497;51.476;7.770;2022-09-17T06:59:20;10.30;99.90
30764;DHT22;17497;51.476;7.770;2022-09-17T07:01:47;10.30;99.90
30764;DHT22;17497;51.476;7.770;2022-09-17T07:04:14;10.20;99.90
30764;DHT22;17497;51.476;7.770;2022-09-17T07:06:42;10.30;99.90
30764;DHT22;17497;51.476;7.770;2022-09-17T07:09:10;10.20;99.90
30764;DHT22;17497;51.476;7.770;2022-09-17T07:11:38;10.30;99.90
30764;DHT22;17497;51.476;7.770;2022-09-17T07:14:04;10.30;99.90
30764;DHT22;17497;51.476;7.770;2022-09-17T07:16:32;10.20;99.90
30764;DHT22;17497;51.476;7.770;2022-09-17T07:19:02;10.20;99.90
30764;DHT22;17497;51.476;7.770;2022-09-17T07:21:29;10.20;99.90
30764;DHT22;17497;51.476;7.770;2022-09-17T07:23:56;10.30;99.90
30764;DHT22;17497;51.476;7.770;2022-09-17T07:26:23;10.30;99.90
30764;DHT22;17497;51.476;7.770;2022-09-17T07:28:50;10.40;99.90
30764;DHT22;17497;51.476;7.770;2022-09-17T07:31:16;10.30;99.90
30764;DHT22;17497;51.476;7.770;2022-09-17T07:33:43;10.30;99.90
30764;DHT22;17497;51.476;7.770;2022-09-17T07:36:12;10.40;99.90
30764;DHT22;17497;51.476;7.770;2022-09-17T07:38:39;10.50;99.90
30764;DHT22;17497;51.476;7.770;2022-09-17T07:41:09;10.50;99.90
30764;DHT22;17497;51.476;7.770;2022-09-17T07:43:39;10.70;99.90
30764;DHT22;17497;51.476;7.770;2022-09-17T07:46:06;10.80;99.90
30764;DHT22;17497;51.476;7.770;2022-09-17T07:48:34;10.70;99.90
30764;DHT22;17497;51.476;7.770;2022-09-17T07:51:00;10.70;99.90
30764;DHT22;17497;51.476;7.770;2022-09-17T07:53:27;10.70;99.90
30764;DHT22;17497;51.476;7.770;2022-09-17T07:55:59;10.70;99.90
30764;DHT22;17497;51.476;7.770;2022-09-17T07:58:31;10.80;99.90
30764;DHT22;17497;51.476;7.770;2022-09-17T08:01:00;10.80;99.90
30764;DHT22;17497;51.476;7.770;2022-09-17T08:03:27;10.80;99.90
30764;DHT22;17497;51.476;7.770;2022-09-17T08:06:09;10.80;99.90
30764;DHT22;17497;51.476;7.770;2022-09-17T08:08:37;10.90;99.90
30764;DHT22;17497;51.476;7.770;2022-09-17T08:11:07;10.90;99.90
30764;DHT22;17497;51.476;7.770;2022-09-17T08:13:34;10.90;99.90
30764;DHT22;17497;51.476;7.770;2022-09-17T08:16:03;10.80;99.90
30764;DHT22;17497;51.476;7.770;2022-09-17T08:18:31;10.80;99.90
30764;DHT22;17497;51.476;7.770;2022-09-17T08:20:59;10.80;99.90
30764;DHT22;17497;51.476;7.770;2022-09-17T08:23:26;10.90;99.90
30764;DHT22;17497;51.476;7.770;2022-09-17T08:25:54;11.00;99.90
30764;DHT22;17497;51.476;7.770;2022-09-17T08:28:22;11.20;99.90
30764;DHT22;17497;51.476;7.770;2022-09-17T08:30:51;11.20;99.90
30764;DHT22;17497;51.476;7.770;2022-09-17T08:33:19;11.30;99.90
30764;DHT22;17497;51.476;7.770;2022-09-17T08:35:53;11.30;99.90
30764;DHT22;17497;51.476;7.770;2022-09-17T08:38:20;11.40;99.90
30764;DHT22;17497;51.476;7.770;2022-09-17T08:46:12;11.40;99.90
30764;DHT22;17497;51.476;7.770;2022-09-17T08:48:47;11.50;99.90
30764;DHT22;17497;51.476;7.770;2022-09-17T08:54:51;11.60;99.90
30764;DHT22;17497;51.476;7.770;2022-09-17T08:57:46;11.70;99.90
30764;DHT22;17497;51.476;7.770;2022-09-17T09:00:20;11.60;99.90
30764;DHT22;17497;51.476;7.770;2022-09-17T09:05:55;11.90;99.90
30764;DHT22;17497;51.476;7.770;2022-09-17T09:08:37;11.90;99.90
30764;DHT22;17497;51.476;7.770;2022-09-17T09:11:24;11.90;99.90
30764;DHT22;17497;51.476;7.770;2022-09-17T09:16:29;12.20;99.90
30764;DHT22;17497;51.476;7.770;2022-09-17T09:19:18;12.20;99.90
30764;DHT22;17497;51.476;7.770;2022-09-17T09:22:02;12.20;99.90
30764;DHT22;17497;51.476;7.770;2022-09-17T09:24:41;12.20;99.90
30764;DHT22;17497;51.476;7.770;2022-09-17T09:27:16;12.10;99.90
30764;DHT22;17497;51.476;7.770;2022-09-17T09:32:54;12.40;99.90
30764;DHT22;17497;51.476;7.770;2022-09-17T09:35:26;12.50;99.90
30764;DHT22;17497;51.476;7.770;2022-09-17T09:43:02;12.40;99.90
30764;DHT22;17497;51.476;7.770;2022-09-17T09:54:32;12.40;99.90
30764;DHT22;17497;51.476;7.770;2022-09-17T09:57:09;12.40;99.90
30764;DHT22;17497;51.476;7.770;2022-09-17T09:59:37;12.60;99.90
30764;DHT22;17497;51.476;7.770;2022-09-17T10:02:07;12.70;99.90
30764;DHT22;17497;51.476;7.770;2022-09-17T10:04:34;12.60;99.90
30764;DHT22;17497;51.476;7.770;2022-09-17T10:07:03;12.50;99.90
30764;DHT22;17497;51.476;7.770;2022-09-17T10:09:32;12.50;99.90
30764;DHT22;17497;51.476;7.770;2022-09-17T10:12:00;12.90;99.90
30764;DHT22;17497;51.476;7.770;2022-09-17T10:14:32;13.10;99.90
30764;DHT22;17497;51.476;7.770;2022-09-17T10:19:41;13.20;99.90
30764;DHT22;17497;51.476;7.770;2022-09-17T10:22:27;13.40;99.90
30764;DHT22;17497;51.476;7.770;2022-09-17T10:24:56;13.50;99.90
30764;DHT22;17497;51.476;7.770;2022-09-17T10:27:24;13.60;99.90
30764;DHT22;17497;51.476;7.770;2022-09-17T10:29:55;13.70;99.90
30764;DHT22;17497;51.476;7.770;2022-09-17T10:32:26;13.90;99.90
30764;DHT22;17497;51.476;7.770;2022-09-17T10:37:52;14.50;99.90
30764;DHT22;17497;51.476;7.770;2022-09-17T10:42:50;14.90;99.90
30764;DHT22;17497;51.476;7.770;2022-09-17T10:47:51;14.50;99.90
30764;DHT22;17497;51.476;7.770;2022-09-17T10:50:20;14.40;99.90
30764;DHT22;17497;51.476;7.770;2022-09-17T10:52:51;14.40;99.90
30764;DHT22;17497;51.476;7.770;2022-09-17T10:58:30;13.80;99.90
30764;DHT22;17497;51.476;7.770;2022-09-17T11:01:12;13.60;99.90
30764;DHT22;17497;51.476;7.770;2022-09-17T11:10:06;15.10;99.90
30764;DHT22;17497;51.476;7.770;2022-09-17T11:15:28;14.70;99.90
30764;DHT22;17497;51.476;7.770;2022-09-17T11:18:06;14.20;99.90
30764;DHT22;17497;51.476;7.770;2022-09-17T11:32:22;11.90;99.90
30764;DHT22;17497;51.476;7.770;2022-09-17T11:34:57;11.80;99.90
30764;DHT22;17497;51.476;7.770;2022-09-17T11:37:42;11.80;99.90
30764;DHT22;17497;51.476;7.770;2022-09-17T11:40:23;12.50;99.90
30764;DHT22;17497;51.476;7.770;2022-09-17T11:42:58;13.30;99.90
30764;DHT22;17497;51.476;7.770;2022-09-17T11:45:37;14.00;99.90
30764;DHT22;17497;51.476;7.770;2022-09-17T11:48:11;14.60;99.90
30764;DHT22;17497;51.476;7.770;2022-09-17T11:50:59;14.80;99.90
30764;DHT22;17497;51.476;7.770;2022-09-17T11:53:31;15.30;99.90
30764;DHT22;17497;51.476;7.770;2022-09-17T11:56:04;15.70;99.90
30764;DHT22;17497;51.476;7.770;2022-09-17T11:58:57;15.70;99.90
30764;DHT22;17497;51.476;7.770;2022-09-17T12:07:01;15.60;99.90
30764;DHT22;17497;51.476;7.770;2022-09-17T12:09:35;15.70;99.90
30764;DHT22;17497;51.476;7.770;2022-09-17T12:12:23;15.10;99.90
30764;DHT22;17497;51.476;7.770;2022-09-17T12:15:19;14.50;99.90
30764;DHT22;17497;51.476;7.770;2022-09-17T12:17:54;14.40;99.90
30764;DHT22;17497;51.476;7.770;2022-09-17T12:20:46;14.10;99.90
30764;DHT22;17497;51.476;7.770;2022-09-17T12:23:24;13.70;99.90
30764;DHT22;17497;51.476;7.770;2022-09-17T12:29:16;12.80;99.90
30764;DHT22;17497;51.476;7.770;2022-09-17T12:37:17;11.60;99.90
30764;DHT22;17497;51.476;7.770;2022-09-17T12:45:28;11.70;99.90
30764;DHT22;17497;51.476;7.770;2022-09-17T12:51:25;12.60;99.90
30764;DHT22;17497;51.476;7.770;2022-09-17T12:59:29;13.20;99.90
30764;DHT22;17497;51.476;7.770;2022-09-17T13:02:13;13.30;99.90
30764;DHT22;17497;51.476;7.770;2022-09-17T13:17:32;14.30;99.90
30764;DHT22;17497;51.476;7.770;2022-09-17T13:20:25;14.50;99.90
30764;DHT22;17497;51.476;7.770;2022-09-17T13:22:55;14.10;99.90
30764;DHT22;17497;51.476;7.770;2022-09-17T13:25:22;13.60;99.90
30764;DHT22;17497;51.476;7.770;2022-09-17T13:27:50;13.30;99.90
30764;DHT22;17497;51.476;7.770;2022-09-17T13:30:58;12.90;99.90
30764;DHT22;17497;51.476;7.770;2022-09-17T13:33:57;12.40;99.90
30764;DHT22;17497;51.476;7.770;2022-09-17T13:45:04;11.20;99.90
30764;DHT22;17497;51.476;7.770;2022-09-17T13:55:48;11.60;99.90
30764;DHT22;17497;51.476;7.770;2022-09-17T14:01:00;12.40;99.90
30764;DHT22;17497;51.476;7.770;2022-09-17T14:21:42;12.60;99.90
30764;DHT22;17497;51.476;7.770;2022-09-17T14:24:22;12.60;99.90
30764;DHT22;17497;51.476;7.770;2022-09-17T14:35:40;12.40;99.90
30764;DHT22;17497;51.476;7.770;2022-09-17T14:38:22;12.60;99.90
30764;DHT22;17497;51.476;7.770;2022-09-17T14:44:02;13.40;99.90
30764;DHT22;17497;51.476;7.770;2022-09-17T14:46:31;13.20;99.90
30764;DHT22;17497;51.476;7.770;2022-09-17T14:49:18;13.20;99.90
30764;DHT22;17497;51.476;7.770;2022-09-17T14:51:45;13.40;99.90
30764;DHT22;17497;51.476;7.770;2022-09-17T14:54:23;13.40;99.90
30764;DHT22;17497;51.476;7.770;2022-09-17T15:01:55;12.90;99.90
30764;DHT22;17497;51.476;7.770;2022-09-17T15:04:27;12.90;99.90
30764;DHT22;17497;51.476;7.770;2022-09-17T15:07:08;12.80;99.90
30764;DHT22;17497;51.476;7.770;2022-09-17T15:09:34;12.30;99.90
30764;DHT22;17497;51.476;7.770;2022-09-17T15:12:02;11.70;99.90
30764;DHT22;17497;51.476;7.770;2022-09-17T15:14:33;11.10;99.90
30764;DHT22;17497;51.476;7.770;2022-09-17T15:17:01;10.80;99.90
30764;DHT22;17497;51.476;7.770;2022-09-17T15:19:32;10.80;99.90
30764;DHT22;17497;51.476;7.770;2022-09-17T15:24:50;10.70;99.90
30764;DHT22;17497;51.476;7.770;2022-09-17T15:27:42;11.00;99.90
30764;DHT22;17497;51.476;7.770;2022-09-17T15:30:15;11.40;99.90
30764;DHT22;17497;51.476;7.770;2022-09-17T15:32:49;11.70;99.90
30764;DHT22;17497;51.476;7.770;2022-09-17T15:35:20;12.10;99.90
30764;DHT22;17497;51.476;7.770;2022-09-17T15:37:52;12.30;99.90
30764;DHT22;17497;51.476;7.770;2022-09-17T15:40:40;12.30;99.90
30764;DHT22;17497;51.476;7.770;2022-09-17T15:43:20;12.00;99.90
30764;DHT22;17497;51.476;7.770;2022-09-17T15:45:48;11.80;99.90
30764;DHT22;17497;51.476;7.770;2022-09-17T15:48:44;11.50;99.90
30764;DHT22;17497;51.476;7.770;2022-09-17T15:51:26;11.60;99.90
30764;DHT22;17497;51.476;7.770;2022-09-17T15:53:59;11.80;99.90
30764;DHT22;17497;51.476;7.770;2022-09-17T15:56:32;12.10;99.90
30764;DHT22;17497;51.476;7.770;2022-09-17T15:59:03;12.50;99.90
30764;DHT22;17497;51.476;7.770;2022-09-17T16:04:15;13.00;99.90
30764;DHT22;17497;51.476;7.770;2022-09-17T16:06:55;13.00;99.90
30764;DHT22;17497;51.476;7.770;2022-09-17T16:12:07;13.20;99.90
30764;DHT22;17497;51.476;7.770;2022-09-17T16:14:36;13.20;99.90
30764;DHT22;17497;51.476;7.770;2022-09-17T16:17:23;12.90;99.90
30764;DHT22;17497;51.476;7.770;2022-09-17T16:19:50;12.80;99.90
30764;DHT22;17497;51.476;7.770;2022-09-17T16:22:17;12.60;99.90
30764;DHT22;17497;51.476;7.770;2022-09-17T16:24:43;12.50;99.90
30764;DHT22;17497;51.476;7.770;2022-09-17T16:27:22;12.20;99.90
30764;DHT22;17497;51.476;7.770;2022-09-17T16:29:50;12.10;99.90
30764;DHT22;17497;51.476;7.770;2022-09-17T16:32:20;12.00;99.90
30764;DHT22;17497;51.476;7.770;2022-09-17T16:34:47;11.90;99.90
30764;DHT22;17497;51.476;7.770;2022-09-17T16:37:13;11.90;99.90
30764;DHT22;17497;51.476;7.770;2022-09-17T16:39:40;12.00;99.90
30764;DHT22;17497;51.476;7.770;2022-09-17T16:42:07;12.00;99.90
30764;DHT22;17497;51.476;7.770;2022-09-17T16:44:34;11.90;99.90
30764;DHT22;17497;51.476;7.770;2022-09-17T16:47:00;11.90;99.90
30764;DHT22;17497;51.476;7.770;2022-09-17T16:49:27;11.90;99.90
30764;DHT22;17497;51.476;7.770;2022-09-17T16:51:54;11.80;99.90
30764;DHT22;17497;51.476;7.770;2022-09-17T16:54:20;11.70;99.90
30764;DHT22;17497;51.476;7.770;2022-09-17T16:56:47;11.70;99.90
30764;DHT22;17497;51.476;7.770;2022-09-17T16:59:14;11.60;99.90
30764;DHT22;17497;51.476;7.770;2022-09-17T17:01:40;11.50;99.90
30764;DHT22;17497;51.476;7.770;2022-09-17T17:04:07;11.60;99.90
30764;DHT22;17497;51.476;7.770;2022-09-17T17:06:34;11.50;99.90
30764;DHT22;17497;51.476;7.770;2022-09-17T17:09:01;11.50;99.90
30764;DHT22;17497;51.476;7.770;2022-09-17T17:11:28;11.40;99.90
30764;DHT22;17497;51.476;7.770;2022-09-17T17:13:54;11.40;99.90
30764;DHT22;17497;51.476;7.770;2022-09-17T17:16:21;11.30;99.90
30764;DHT22;17497;51.476;7.770;2022-09-17T17:18:49;11.20;99.90
30764;DHT22;17497;51.476;7.770;2022-09-17T17:21:19;11.20;99.90
30764;DHT22;17497;51.476;7.770;2022-09-17T17:23:46;11.20;99.90
30764;DHT22;17497;51.476;7.770;2022-09-17T17:26:16;11.20;99.90
30764;DHT22;17497;51.476;7.770;2022-09-17T17:28:43;11.20;99.90
30764;DHT22;17497;51.476;7.770;2022-09-17T17:31:09;11.20;99.90
30764;DHT22;17497;51.476;7.770;2022-09-17T17:33:37;11.10;99.90
30764;DHT22;17497;51.476;7.770;2022-09-17T17:36:04;11.10;99.90
30764;DHT22;17497;51.476;7.770;2022-09-17T17:38:34;11.00;99.90
30764;DHT22;17497;51.476;7.770;2022-09-17T17:43:32;10.90;99.90
30764;DHT22;17497;51.476;7.770;2022-09-17T17:45:59;10.90;99.90
30764;DHT22;17497;51.476;7.770;2022-09-17T17:48:26;10.90;99.90
30764;DHT22;17497;51.476;7.770;2022-09-17T17:50:53;10.80;99.90
30764;DHT22;17497;51.476;7.770;2022-09-17T17:53:22;10.70;99.90
30764;DHT22;17497;51.476;7.770;2022-09-17T17:55:57;10.80;99.90
30764;DHT22;17497;51.476;7.770;2022-09-17T17:58:24;10.80;99.90
30764;DHT22;17497;51.476;7.770;2022-09-17T18:00:51;10.70;99.90
30764;DHT22;17497;51.476;7.770;2022-09-17T18:03:18;10.70;99.90
30764;DHT22;17497;51.476;7.770;2022-09-17T18:05:45;10.60;99.90
30764;DHT22;17497;51.476;7.770;2022-09-17T18:08:12;10.50;99.90
30764;DHT22;17497;51.476;7.770;2022-09-17T18:10:38;10.50;99.90
30764;DHT22;17497;51.476;7.770;2022-09-17T18:13:05;10.50;99.90
30764;DHT22;17497;51.476;7.770;2022-09-17T18:15:32;10.50;99.90
30764;DHT22;17497;51.476;7.770;2022-09-17T18:17:59;10.40;99.90
30764;DHT22;17497;51.476;7.770;2022-09-17T18:20:25;10.40;99.90
30764;DHT22;17497;51.476;7.770;2022-09-17T18:22:52;10.40;99.90
30764;DHT22;17497;51.476;7.770;2022-09-17T18:25:19;10.30;99.90
30764;DHT22;17497;51.476;7.770;2022-09-17T18:27:45;10.30;99.90
30764;DHT22;17497;51.476;7.770;2022-09-17T18:30:12;10.30;99.90
30764;DHT22;17497;51.476;7.770;2022-09-17T18:32:40;10.30;99.90
30764;DHT22;17497;51.476;7.770;2022-09-17T18:35:06;10.30;99.90
30764;DHT22;17497;51.476;7.770;2022-09-17T18:37:33;10.30;99.90
30764;DHT22;17497;51.476;7.770;2022-09-17T18:40:00;10.30;99.90
30764;DHT22;17497;51.476;7.770;2022-09-17T18:42:27;10.20;99.90
30764;DHT22;17497;51.476;7.770;2022-09-17T18:44:54;10.20;99.90
30764;DHT22;17497;51.476;7.770;2022-09-17T18:47:21;10.20;99.90
30764;DHT22;17497;51.476;7.770;2022-09-17T18:49:48;10.20;99.90
30764;DHT22;17497;51.476;7.770;2022-09-17T18:52:14;10.20;99.90
30764;DHT22;17497;51.476;7.770;2022-09-17T18:54:41;10.20;99.90
30764;DHT22;17497;51.476;7.770;2022-09-17T18:57:08;10.20;99.90
30764;DHT22;17497;51.476;7.770;2022-09-17T18:59:34;10.20;99.90
30764;DHT22;17497;51.476;7.770;2022-09-17T19:02:01;10.20;99.90
30764;DHT22;17497;51.476;7.770;2022-09-17T19:04:28;10.20;99.90
30764;DHT22;17497;51.476;7.770;2022-09-17T19:06:55;10.20;99.90
30764;DHT22;17497;51.476;7.770;2022-09-17T19:09:21;10.20;99.90
30764;DHT22;17497;51.476;7.770;2022-09-17T19:11:48;10.20;99.90
30764;DHT22;17497;51.476;7.770;2022-09-17T19:14:15;10.20;99.90
30764;DHT22;17497;51.476;7.770;2022-09-17T19:16:41;10.20;99.90
30764;DHT22;17497;51.476;7.770;2022-09-17T19:19:08;10.20;99.90
30764;DHT22;17497;51.476;7.770;2022-09-17T19:21:35;10.20;99.90
30764;DHT22;17497;51.476;7.770;2022-09-17T19:24:02;10.10;99.90
30764;DHT22;17497;51.476;7.770;2022-09-17T19:26:29;10.10;99.90
30764;DHT22;17497;51.476;7.770;2022-09-17T19:28:57;10.10;99.90
30764;DHT22;17497;51.476;7.770;2022-09-17T19:31:24;10.10;99.90
30764;DHT22;17497;51.476;7.770;2022-09-17T19:33:51;10.10;99.90
30764;DHT22;17497;51.476;7.770;2022-09-17T19:36:19;10.00;99.90
30764;DHT22;17497;51.476;7.770;2022-09-17T19:38:46;10.00;99.90